Cavanagh, Argentina
Current Conditions -  °F | °C
As of 6:00 PM on Friday 19 Dec 2014 (Local Time) from SAAR Reporting Station
Clear Clear  
Wind Chill: 33°   Ceiling: Unl
Heat Index: 34°   Visibility: 6mi
Dew Point: 18°   Wind: 16mph
Humidity: 41%   Direction: 360°N
Pressure: 29.53"   Gusts: NA
Location:  33.48°S, 62.35°W
Report Text: SAAR 192100Z 36014KT CAVOK 33/18 Q1000
Loading
Personal Weather Stations






























Interactive Weather Map New forecast layout! Learn more

10-Day Weather Forecast

Advertisements
Track Severe Weather on mobile